KLGB/LGB METAR and TAF weather

Enter ICAO airport designator
Station Type Date Time Source
KLGB METAR 2019/08/25 17:53 UTC NOAA

KLGB 251753Z 00000KT 10SM CLR 29/16 A2997 RMK AO2 SLP148 T02890161 10289 20206 58002


Station Type Date Time Source
KLGB Decoded METAR 2019/08/25 17:53 UTC NOAA

Station name not available
Aug 25, 2019 - 01:53 PM EDT / 2019.08.25 1753 UTC
Wind: Calm:0
Visibility: 10 mile(s):0
Sky conditions: clear
Temperature: 84.0 F (28.9 C)
Dew Point: 61.0 F (16.1 C)
Relative Humidity: 45%
Pressure (altimeter): 29.97 in. Hg (1014 hPa)
Pressure tendency: 0.01 inches (0.2 hPa) lower than three hours ago
ob: KLGB 251753Z 00000KT 10SM CLR 29/16 A2997 RMK AO2 SLP148 T02890161 10289 20206 58002
cycle: 18

Station Type Date Time Source
KLGB TAF 2019/08/25 18:30 UTC NOAA

TAF KLGB 251729Z 2518/2618 00000KT P6SM SKC
FM251900 18008KT P6SM SKC
FM252300 30008KT P6SM SKC
FM260400 VRB03KT P6SM SKC
FM260900 VRB03KT 3SM BR OVC004

Example: see airport list